LPFL/FLW METAR and TAF weather

Enter ICAO airport designator
Station Type Date Time Source
LPFL METAR 2019/12/09 18:00 UTC NOAA

LPFL 091800Z 18018G34KT 140V220 9000 -RA FEW010 BKN014 20/17 Q1022


Station Type Date Time Source
LPFL Decoded METAR 2019/12/09 18:00 UTC NOAA

Flores Acores , Portugal (LPFL) 39-27N 031-08W 29M
Dec 09, 2019 - 01:00 PM EST / 2019.12.09 1800 UTC
Wind: from the S (180 degrees) at 21 MPH (18 KT) gusting to 39 MPH (34 KT) (direction variable):0
Visibility: 5 mile(s):0
Sky conditions: mostly cloudy
Weather: light rain
Temperature: 68 F (20 C)
Dew Point: 62 F (17 C)
Relative Humidity: 82%
Pressure (altimeter): 30.18 in. Hg (1022 hPa)
ob: LPFL 091800Z 18018G34KT 140V220 9000 -RA FEW010 BKN014 20/17 Q1022
cycle: 18

Station Type Date Time Source
LPFL TAF UTC NOAA

Error!

Example: see airport list